WetterOnline ( https://www.wetteronline.ch )

Wetter aktuell Weißenfels

Aktuelles Wetter: Osterfeld (246m)

6-stündlich | Neueste Meldungen
Ortszeit Temperatur Wetter
Mi, 03.03. 19:00 10.3° C wolkenlos
Mi, 03.03. 13:00 10.9° C leicht bewölkt
Mi, 03.03. 7:00 1.9° C wolkenlos
Mi, 03.03. 1:00 3.1° C wolkenlos
Di, 02.03. 19:00 7.4° C wolkenlos
Di, 02.03. 13:00 8.0° C wolkenlos
Di, 02.03. 7:00 -0.3° C Nebel
Di, 02.03. 1:00 1.7° C Nebel
Ortszeit Temperatur Wetter
Mi, 03.03. 19:00 10.3° C wolkenlos
Mi, 03.03. 18:40 10.7° C wolkenlos
Mi, 03.03. 18:30 11.3° C leicht bewölkt
Mi, 03.03. 18:20 11.3° C leicht bewölkt
Mi, 03.03. 18:10 11.6° C leicht bewölkt
Mi, 03.03. 18:00 11.7° C wolkig
Mi, 03.03. 17:50 11.7° C wolkig
Mi, 03.03. 17:30 12.6° C leicht bewölkt
Mi, 03.03. 17:00 13.5° C bedeckt
Mi, 03.03. 16:30 13.4° C bewölkt
Mi, 03.03. 16:00 13.9° C leicht bewölkt
Mi, 03.03. 15:30 13.4° C wolkig
Ortszeit Relative Feuchte Sichtweite
Mi, 03.03. 19:00 58% 11 km
Mi, 03.03. 13:00 56% 11 km
Mi, 03.03. 7:00 76% 11 km
Mi, 03.03. 1:00 89% 11 km
Di, 02.03. 19:00 77% 11 km
Di, 02.03. 13:00 79% 11 km
Di, 02.03. 7:00 100% 0.2 km
Di, 02.03. 1:00 99% 0.2 km
Ortszeit Relative Feuchte Sichtweite
Mi, 03.03. 19:00 58% 11 km
Mi, 03.03. 18:40 57% -
Mi, 03.03. 18:30 54% 11 km
Mi, 03.03. 18:20 54% -
Mi, 03.03. 18:10 52% -
Mi, 03.03. 18:00 51% 11 km
Mi, 03.03. 17:50 51% -
Mi, 03.03. 17:30 49% 11 km
Mi, 03.03. 17:00 48% 11 km
Mi, 03.03. 16:30 47% 11 km
Mi, 03.03. 16:00 43% 11 km
Mi, 03.03. 15:30 48% 11 km
Ortszeit Niederschlagsmenge Niederschlagsart
Mi, 03.03. 19:00 0.0 l/m2 in 12 Std. -
Mi, 03.03. 13:00 0.0 l/m2 in 6 Std. -
Mi, 03.03. 7:00 0.0 l/m2 in 12 Std. -
Mi, 03.03. 1:00 0.0 l/m2 in 6 Std. -
Di, 02.03. 19:00 0.0 l/m2 in 12 Std. -
Di, 02.03. 13:00 0.0 l/m2 in 6 Std. -
Di, 02.03. 7:00 0.0 l/m2 in 12 Std. -
Di, 02.03. 1:00 0.0 l/m2 in 6 Std. -
Ortszeit Niederschlagsmenge Niederschlagsart
Mi, 03.03. 19:00 0.0 l/m2 in 1 Std. -
Mi, 03.03. 18:40 keine Meldung -
Mi, 03.03. 18:30 0.0 l/m2 in 1 Std. -
Mi, 03.03. 18:20 keine Meldung -
Mi, 03.03. 18:10 keine Meldung -
Mi, 03.03. 18:00 0.0 l/m2 in 1 Std. -
Mi, 03.03. 17:50 keine Meldung -
Mi, 03.03. 17:30 0.0 l/m2 in 1 Std. -
Mi, 03.03. 17:00 0.0 l/m2 in 1 Std. -
Mi, 03.03. 16:30 0.0 l/m2 in 1 Std. -
Mi, 03.03. 16:00 0.0 l/m2 in 1 Std. -
Mi, 03.03. 15:30 0.0 l/m2 in 1 Std. -
Ortszeit Stärke Spitze Richtung
km/h Bft. km/h Grad Sektor
Mi, 03.03. 19:00 6 1 19 230° SW
Mi, 03.03. 13:00 9 2 19 230° SW
Mi, 03.03. 7:00 7 2 14 200° S
Mi, 03.03. 1:00 6 1 11 210° SW
Di, 02.03. 19:00 7 2 18 70° O
Di, 02.03. 13:00 7 2 14 30° NO
Di, 02.03. 7:00 4 1 11 10° N
Di, 02.03. 1:00 4 1 14 40° NO
Ortszeit Stärke Spitze Richtung
km/h Bft. km/h Grad Sektor
Mi, 03.03. 19:00 6 1 7 230° SW
Mi, 03.03. 18:40 4 1 - 220° SW
Mi, 03.03. 18:30 4 1 7 200° S
Mi, 03.03. 18:20 4 1 - 200° S
Mi, 03.03. 18:10 4 1 - 190° S
Mi, 03.03. 18:00 4 1 11 220° SW
Mi, 03.03. 17:50 4 1 - 220° SW
Mi, 03.03. 17:30 7 2 11 220° SW
Mi, 03.03. 17:00 6 1 13 210° SW
Mi, 03.03. 16:30 7 2 14 210° SW
Mi, 03.03. 16:00 7 2 13 210° SW
Mi, 03.03. 15:30 7 2 11 230° SW
Ortszeit Untergrenze Bedeckung Gattung
total tief tief mittel hoch
Mi, 03.03. 19:00 - 0/8 0/8 - - -
Mi, 03.03. 13:00 7800 m 5/8 0/8 - - -
Mi, 03.03. 7:00 - 0/8 0/8 - - -
Mi, 03.03. 1:00 - 0/8 0/8 - - -
Di, 02.03. 19:00 - 0/8 0/8 - - -
Di, 02.03. 13:00 - 0/8 0/8 - - -
Di, 02.03. 7:00 - - - - - -
Di, 02.03. 1:00 - - - - - -
Ortszeit Bedeckungsgrad in Achtel und Wolkenuntergrenze
Mi, 03.03. 19:00 keine Wolken
Mi, 03.03. 18:40 keine Wolken
Mi, 03.03. 18:30 2(3300m)
Mi, 03.03. 18:20 2(3300m)
Mi, 03.03. 18:10 4(3300m)
Mi, 03.03. 18:00 5(3300m)
Mi, 03.03. 17:50 5(3300m)
Mi, 03.03. 17:30 3(3300m)
Mi, 03.03. 17:00 8(3300m) 8(3900m)
Mi, 03.03. 16:30 7(3600m)
Mi, 03.03. 16:00 3(3600m) 3(7500m)
Mi, 03.03. 15:30 1(3900m) 7(7200m)
Ortszeit Luftdruck NN (hPa) Tendenz (hPa in 3 Std.)
Mi, 03.03. 19:00 1025 - 1,4
Mi, 03.03. 13:00 1028 - 1,0
Mi, 03.03. 7:00 1031 - 0,3
Mi, 03.03. 1:00 1032 - 0,7
Di, 02.03. 19:00 1033 - 0,4
Di, 02.03. 13:00 1034 - 0,9
Di, 02.03. 7:00 1036 + 0,3
Di, 02.03. 1:00 1036 0,0
Ortszeit Luftdruck NN (hPa) Tendenz (hPa in 3 Std.)
Mi, 03.03. 19:00 1025 - 1,4
Mi, 03.03. 18:40 1025 keine Meldung
Mi, 03.03. 18:30 1024 - 1,9
Mi, 03.03. 18:20 1024 keine Meldung
Mi, 03.03. 18:10 1024 keine Meldung
Mi, 03.03. 18:00 1025 - 2,1
Mi, 03.03. 17:50 1025 keine Meldung
Mi, 03.03. 17:30 1025 - 2,3
Mi, 03.03. 17:00 1025 - 2,1
Mi, 03.03. 16:30 1025 - 2,2
Mi, 03.03. 16:00 1026 - 2,2
Mi, 03.03. 15:30 1026 - 2,1
Ortszeit Schneehöhe (cm)
Mi, 03.03. 19:00 0
Mi, 03.03. 13:00 0
Mi, 03.03. 7:00 0
Mi, 03.03. 1:00 0
Di, 02.03. 19:00 0
Di, 02.03. 13:00 0
Di, 02.03. 7:00 0
Di, 02.03. 1:00 0
Ortszeit Schneehöhe (cm)
Mi, 03.03. 19:00 0
Mi, 03.03. 18:40 0
Mi, 03.03. 18:30 0
Mi, 03.03. 18:20 0
Mi, 03.03. 18:10 0
Mi, 03.03. 18:00 0
Mi, 03.03. 17:50 0
Mi, 03.03. 17:30 0
Mi, 03.03. 17:00 0
Mi, 03.03. 16:30 0
Mi, 03.03. 16:00 0
Mi, 03.03. 15:30 0
Link zu dieser Seite / Seite empfehlen

Das Wetter in ...